Pagina principale
METAR-TAF:

METAR-TAF

Aeroporti :

Aeroporto di Pola

Pola, Croazia

latitudine: 44-54N, longitudine: 013-55E, altezza: 63 m

Osservazione

Il bollettino è stato emesso 2 ore e 37 minuti fa, alle 05:30 UTC
Vento 6 kt da nord-est
Temperature 25°C
Umidità 54%
Pressione 1015 hPa
Visibilità 10 km o più
nessuna nube inferiore a 1500 m e nessun cumulonembo

METAR: LDPL 210530Z 05006KT CAVOK 25/15 Q1015 NOSIG

Ora: 10:07 (08:07 UTC)

Previsione

Il bollettino è stato emesso 2 ore e 42 minuti fa, alle 05:25 UTC
Previsione valida dal 21 alle 06 UTC al 22 alle 06 UTC
Vento 8 kt da est/nord-est
Visibilità 10 km o più
nessuna nube inferiore a 1500 m e nessun cumulonembo
Temporaneamente
dal 21 alle 07 UTC al 21 alle 12 UTC
Vento 12 kt da est
Probabilità 40% :
Temporaneamente
dal 21 alle 12 UTC al 21 alle 17 UTC
Vento 8 kt da ovest/nord-ovest

TAF: LDPL 210525Z 2106/2206 06008KT CAVOK TX34/2112Z TN24/2203Z TEMPO 2107/2112 09012KT PROB40 TEMPO 2112/2117 30008KT

Osservazioni e previsioni meteorologiche di più di 4000 aeroporti (messaggi METAR e TAF).

Le stazioni disponibili sono rappresentate dai dischi gialli e rossi sulla carta.

Puntare il mouse per vedere il nome della stazione.

Clicca sopra per visualizzare le osservazioni e previsioni meteorologiche.

Per cambiare la mappa : fare clic sui pulsanti verdi con una croce nera per ingrandire, il pulsante verde con un trattino per diminuire, o sulla freccia verde per le mappe adiacenti.


METAR-TAF: